KGON/GON METAR and TAF weather

Enter ICAO airport designator
Station Type Date Time Source
KGON METAR 2018/12/10 01:56 UTC NOAA

KGON 100156Z 30006KT 10SM CLR 01/M04 A3018 RMK AO2 SLP220 T00111044 $


Station Type Date Time Source
KGON Decoded METAR 2018/12/10 01:56 UTC NOAA

GROTON/NEW LONDON AIRPORT , CT, United States (KGON) 41-20N 72-03W 3M
Dec 09, 2018 - 08:56 PM EST / 2018.12.10 0156 UTC
Wind: from the WNW (300 degrees) at 7 MPH (6 KT):0
Visibility: 10 mile(s):0
Sky conditions: clear
Temperature: 34.0 F (1.1 C)
Windchill: 28 F (-2 C):1
Dew Point: 24.1 F (-4.4 C)
Relative Humidity: 66%
Pressure (altimeter): 30.18 in. Hg (1022 hPa)
ob: KGON 100156Z 30006KT 10SM CLR 01/M04 A3018 RMK AO2 SLP220 T00111044
cycle: 2

Station Type Date Time Source
KGON TAF 2018/12/10 02:24 UTC NOAA

TAF
AMD KGON 100223Z 1002/1024 30005KT P6SM BKN250
FM100900 34005KT P6SM SCT250
FM101300 36011KT P6SM SCT250
FM101800 35009KT P6SM SKC


Example: see airport list